createdAt,value
2023-10-09T00:01:05.940Z,2.50
2023-10-09T00:04:02.466Z,2.50
2023-10-09T00:07:00.756Z,2.77
2023-10-09T00:09:56.196Z,2.87
2023-10-09T00:12:50.204Z,2.93
2023-10-09T00:15:44.714Z,3.27
2023-10-09T00:18:39.153Z,2.87
2023-10-09T00:21:35.953Z,3.10
2023-10-09T00:24:29.850Z,3.40
2023-10-09T00:27:25.051Z,3.30
2023-10-09T00:30:22.447Z,3.37
2023-10-09T00:33:23.288Z,2.83
2023-10-09T00:36:20.677Z,3.63
2023-10-09T00:39:21.362Z,3.93
2023-10-09T00:42:15.766Z,4.53
2023-10-09T00:45:11.643Z,3.23
2023-10-09T00:48:07.694Z,3.50
2023-10-09T00:51:01.686Z,3.90
2023-10-09T00:53:59.407Z,3.87
2023-10-09T00:56:59.073Z,3.90
2023-10-09T01:00:02.464Z,3.90
2023-10-09T01:03:11.835Z,3.47
2023-10-09T01:06:17.464Z,3.93
2023-10-09T01:09:13.500Z,3.23
2023-10-09T01:12:08.828Z,3.70
2023-10-09T01:15:02.458Z,4.00
2023-10-09T01:17:55.559Z,3.90
2023-10-09T01:20:48.538Z,4.00
2023-10-09T01:24:00.018Z,3.50
2023-10-09T01:26:55.419Z,3.17
2023-10-09T01:29:48.654Z,3.50
2023-10-09T01:32:41.892Z,4.00
2023-10-09T01:35:35.867Z,3.37
2023-10-09T01:38:41.468Z,3.13
2023-10-09T01:41:36.399Z,3.20
2023-10-09T01:44:33.208Z,3.67
2023-10-09T01:47:29.927Z,3.73
2023-10-09T01:50:54.168Z,3.60
2023-10-09T01:53:48.840Z,3.20
2023-10-09T01:56:47.398Z,3.33
2023-10-09T01:59:44.907Z,3.20
2023-10-09T02:02:37.963Z,3.30
2023-10-09T02:05:35.294Z,3.30
2023-10-09T02:08:37.263Z,3.30
2023-10-09T02:11:42.624Z,3.63
2023-10-09T02:14:42.488Z,3.10
2023-10-09T02:17:35.427Z,2.97
2023-10-09T02:20:31.897Z,2.77
2023-10-09T02:23:31.392Z,3.47
2023-10-09T02:26:33.229Z,3.20
2023-10-09T02:29:27.756Z,3.20
2023-10-09T02:32:26.865Z,3.50
2023-10-09T02:35:29.325Z,3.47
2023-10-09T02:38:24.518Z,3.30
2023-10-09T02:41:23.810Z,4.00
2023-10-09T02:44:16.977Z,3.40
2023-10-09T02:47:19.134Z,3.50
2023-10-09T02:50:21.829Z,4.13
2023-10-09T02:53:19.734Z,3.70
2023-10-09T02:56:14.640Z,4.07
2023-10-09T02:59:09.851Z,4.40
2023-10-09T03:02:02.909Z,4.73
2023-10-09T03:04:56.701Z,4.53
2023-10-09T03:07:53.239Z,4.30
2023-10-09T03:10:46.280Z,4.57
2023-10-09T03:13:39.242Z,4.60
2023-10-09T03:16:34.744Z,4.63
2023-10-09T03:19:29.408Z,4.57
2023-10-09T03:22:22.611Z,5.23
2023-10-09T03:25:18.195Z,4.33
2023-10-09T03:28:11.549Z,4.47
2023-10-09T03:31:06.813Z,5.00
2023-10-09T03:33:59.868Z,4.53
2023-10-09T03:37:07.748Z,4.00
2023-10-09T03:40:00.914Z,4.53
2023-10-09T03:42:56.222Z,4.30
2023-10-09T03:45:53.690Z,4.17
2023-10-09T03:48:52.206Z,3.77
2023-10-09T03:51:46.669Z,4.50
2023-10-09T03:54:40.111Z,4.10
2023-10-09T03:57:33.341Z,4.10
2023-10-09T04:00:30.112Z,3.87
2023-10-09T04:03:23.328Z,3.40
2023-10-09T04:06:18.787Z,4.00
2023-10-09T04:09:30.470Z,3.80
2023-10-09T04:12:26.592Z,3.53
2023-10-09T04:15:24.167Z,3.53
2023-10-09T04:18:29.249Z,4.20
2023-10-09T04:21:35.514Z,4.00
2023-10-09T04:24:36.671Z,4.07
2023-10-09T04:27:38.636Z,4.20
2023-10-09T04:30:41.309Z,4.53
2023-10-09T04:33:44.230Z,4.07
2023-10-09T04:36:47.581Z,4.37
2023-10-09T04:39:47.995Z,4.27
2023-10-09T04:42:47.979Z,4.97
2023-10-09T04:45:57.890Z,4.47
2023-10-09T04:48:55.512Z,4.70
2023-10-09T04:52:03.869Z,4.50
2023-10-09T04:55:20.205Z,5.30
2023-10-09T04:58:24.816Z,4.40
2023-10-09T05:01:37.072Z,4.60
2023-10-09T05:04:42.961Z,4.73
2023-10-09T05:07:52.523Z,5.20
2023-10-09T05:11:06.448Z,5.43
2023-10-09T05:14:12.817Z,5.20
2023-10-09T05:17:07.950Z,5.00
2023-10-09T05:20:16.088Z,4.93
2023-10-09T05:23:27.109Z,3.83
2023-10-09T05:26:38.756Z,3.57
2023-10-09T05:29:48.962Z,3.50
2023-10-09T05:32:49.438Z,3.67
2023-10-09T05:36:00.689Z,4.17
2023-10-09T05:39:18.805Z,4.37
2023-10-09T05:42:15.122Z,4.70
2023-10-09T05:45:25.644Z,4.30
2023-10-09T05:48:38.804Z,5.20
2023-10-09T05:51:48.768Z,4.80
2023-10-09T05:55:04.327Z,4.47
2023-10-09T05:58:15.608Z,4.77
2023-10-09T06:01:22.677Z,4.17
2023-10-09T06:04:18.778Z,4.70
2023-10-09T06:07:15.317Z,4.73
2023-10-09T06:10:19.048Z,5.00
2023-10-09T06:13:47.004Z,4.13
2023-10-09T06:16:42.994Z,4.57
2023-10-09T06:19:44.425Z,4.87
2023-10-09T06:22:56.803Z,4.90
2023-10-09T06:25:53.545Z,4.87
2023-10-09T06:28:53.135Z,5.07
2023-10-09T06:32:00.559Z,5.23
2023-10-09T06:34:53.494Z,4.83
2023-10-09T06:38:08.451Z,5.03
2023-10-09T06:41:33.096Z,5.67
2023-10-09T06:44:47.789Z,5.43
2023-10-09T06:47:43.281Z,5.13
2023-10-09T06:50:50.817Z,5.53
2023-10-09T06:54:04.733Z,6.37
2023-10-09T06:57:14.793Z,5.60
2023-10-09T07:00:28.165Z,4.67
2023-10-09T07:03:30.734Z,5.40
2023-10-09T07:06:46.959Z,5.97
2023-10-09T07:09:44.079Z,5.03
2023-10-09T07:12:43.824Z,4.80
2023-10-09T07:15:54.577Z,4.77
2023-10-09T07:18:55.594Z,4.63
2023-10-09T07:21:55.249Z,4.33
2023-10-09T07:24:51.103Z,4.73
2023-10-09T07:27:45.777Z,4.60
2023-10-09T07:30:39.106Z,4.80
2023-10-09T07:33:53.293Z,4.87
2023-10-09T07:36:56.961Z,4.17
2023-10-09T07:39:58.313Z,3.93
2023-10-09T07:42:53.761Z,3.90
2023-10-09T07:46:04.454Z,3.90
2023-10-09T07:48:57.946Z,3.80
2023-10-09T07:51:51.157Z,4.30
2023-10-09T07:54:54.222Z,4.27
2023-10-09T07:57:53.321Z,4.10
2023-10-09T08:01:03.065Z,4.70
2023-10-09T08:04:08.769Z,5.00
2023-10-09T08:08:04.178Z,4.47
2023-10-09T08:10:40.424Z,4.53
2023-10-09T08:14:06.824Z,5.00
2023-10-09T08:17:12.754Z,4.40
2023-10-09T08:20:18.259Z,4.90
2023-10-09T08:23:23.298Z,4.50
2023-10-09T08:26:29.368Z,4.80
2023-10-09T08:29:35.599Z,4.30
2023-10-09T08:35:37.771Z,7.80
2023-10-09T08:38:34.293Z,7.37
2023-10-09T08:41:31.272Z,6.97
2023-10-09T08:44:27.902Z,6.80
2023-10-09T08:47:21.253Z,6.17
2023-10-09T08:50:16.035Z,4.93
2023-10-09T08:53:09.632Z,5.03
2023-10-09T08:56:04.709Z,6.07
2023-10-09T08:58:58.730Z,4.77
2023-10-09T09:01:54.188Z,4.67
2023-10-09T09:04:51.688Z,4.83
2023-10-09T09:07:44.804Z,9.50
2023-10-09T09:10:40.006Z,5.30
2023-10-09T09:13:35.306Z,4.77
2023-10-09T09:16:31.553Z,4.87
2023-10-09T09:19:33.397Z,4.03
2023-10-09T09:22:29.309Z,7.37
2023-10-09T09:25:25.607Z,7.73
2023-10-09T09:28:22.737Z,4.90
2023-10-09T09:31:16.101Z,4.83
2023-10-09T09:34:17.763Z,4.57
2023-10-09T09:37:14.996Z,4.37
2023-10-09T09:40:16.308Z,4.80
2023-10-09T09:43:18.636Z,4.87
2023-10-09T09:46:13.605Z,4.67
2023-10-09T09:49:13.503Z,6.20
2023-10-09T09:52:11.222Z,4.20
2023-10-09T09:55:06.198Z,5.20
2023-10-09T09:57:59.870Z,4.77
2023-10-09T10:00:56.165Z,4.10
2023-10-09T10:03:52.126Z,3.97
2023-10-09T10:06:46.278Z,4.07
2023-10-09T10:09:41.061Z,4.33
2023-10-09T10:12:49.131Z,4.40
2023-10-09T10:16:14.074Z,4.83
2023-10-09T10:19:23.472Z,6.93
2023-10-09T10:22:25.136Z,8.67
2023-10-09T10:25:36.820Z,5.20
2023-10-09T10:28:44.043Z,5.00
2023-10-09T10:32:08.234Z,5.20
2023-10-09T10:35:07.783Z,5.10
2023-10-09T10:38:12.665Z,5.83
2023-10-09T10:41:13.638Z,4.47
2023-10-09T10:44:20.585Z,4.17
2023-10-09T10:47:33.304Z,4.73
2023-10-09T10:50:37.319Z,4.97
2023-10-09T10:53:36.560Z,4.97
2023-10-09T10:56:38.617Z,5.30
2023-10-09T10:59:37.878Z,6.13
2023-10-09T11:02:32.421Z,5.53
2023-10-09T11:05:29.042Z,5.00
2023-10-09T11:08:28.524Z,5.17
2023-10-09T11:11:21.682Z,5.43
2023-10-09T11:14:16.900Z,5.50
2023-10-09T11:17:25.106Z,5.27
2023-10-09T11:20:33.182Z,5.50
2023-10-09T11:23:41.075Z,5.80
2023-10-09T11:26:41.373Z,5.60
2023-10-09T11:29:48.799Z,5.63
2023-10-09T11:32:42.345Z,5.10
2023-10-09T11:35:36.392Z,5.60
2023-10-09T11:38:37.683Z,5.77
2023-10-09T11:41:43.618Z,12.13
2023-10-09T11:47:36.671Z,5.33
2023-10-09T11:50:46.539Z,5.67
2023-10-09T11:53:44.608Z,4.77
2023-10-09T11:56:37.750Z,4.70
2023-10-09T11:59:35.547Z,5.40
2023-10-09T12:02:29.192Z,6.53
2023-10-09T12:05:22.512Z,10.30
2023-10-09T12:08:16.864Z,5.93
2023-10-09T12:11:14.331Z,5.20
2023-10-09T12:14:07.882Z,6.00
2023-10-09T12:17:06.477Z,5.70
2023-10-09T12:20:00.043Z,6.57
2023-10-09T12:22:53.465Z,5.77
2023-10-09T12:25:48.107Z,6.30
2023-10-09T12:28:47.589Z,6.80
2023-10-09T12:31:43.141Z,7.00
2023-10-09T12:34:39.386Z,7.43
2023-10-09T12:37:32.495Z,7.63
2023-10-09T12:40:32.475Z,7.10
2023-10-09T12:43:28.992Z,7.70
2023-10-09T12:46:26.651Z,8.07
2023-10-09T12:49:20.461Z,7.37
2023-10-09T12:52:16.605Z,8.50
2023-10-09T12:55:21.703Z,8.63
2023-10-09T12:58:19.352Z,11.60
2023-10-09T13:01:13.164Z,16.37
2023-10-09T13:04:12.930Z,12.20
2023-10-09T13:07:07.283Z,9.73
2023-10-09T13:10:13.840Z,7.67
2023-10-09T13:13:07.521Z,9.33
2023-10-09T13:16:01.745Z,8.67
2023-10-09T13:18:57.983Z,8.63
2023-10-09T13:21:58.379Z,9.47
2023-10-09T13:24:53.998Z,8.87
2023-10-09T13:27:54.244Z,8.50
2023-10-09T13:30:50.542Z,10.03
2023-10-09T13:33:44.012Z,10.80
2023-10-09T13:36:38.314Z,9.90
2023-10-09T13:39:40.102Z,9.50
2023-10-09T13:42:33.109Z,9.70
2023-10-09T13:45:28.257Z,9.87
2023-10-09T13:48:22.255Z,10.33
2023-10-09T13:51:18.642Z,9.67
2023-10-09T13:54:19.443Z,10.03
2023-10-09T13:57:13.976Z,11.47
2023-10-09T14:00:12.187Z,10.50
2023-10-09T14:03:13.253Z,11.13
2023-10-09T14:06:13.651Z,11.33
2023-10-09T14:09:10.200Z,13.13
2023-10-09T14:12:08.597Z,11.53
2023-10-09T14:15:05.273Z,11.97
2023-10-09T14:17:58.485Z,11.07
2023-10-09T14:20:57.196Z,18.27
2023-10-09T14:23:50.219Z,14.17
2023-10-09T14:26:43.752Z,13.20
2023-10-09T14:29:38.831Z,11.83
2023-10-09T14:32:51.646Z,11.03
2023-10-09T14:35:46.518Z,11.37
2023-10-09T14:38:40.133Z,17.33
2023-10-09T14:41:34.328Z,11.40
2023-10-09T14:44:29.339Z,13.10
2023-10-09T14:47:22.613Z,13.53
2023-10-09T14:50:17.206Z,12.67
2023-10-09T14:53:10.182Z,11.30
2023-10-09T14:56:04.806Z,9.80
2023-10-09T14:58:59.399Z,9.57
2023-10-09T15:01:55.156Z,10.23
2023-10-09T15:04:48.514Z,10.57
2023-10-09T15:07:45.283Z,11.30
2023-10-09T15:10:47.272Z,12.03
2023-10-09T15:13:40.821Z,11.03
2023-10-09T15:16:34.805Z,11.00
2023-10-09T15:19:33.104Z,10.70
2023-10-09T15:22:29.621Z,10.67
2023-10-09T15:25:24.218Z,10.37
2023-10-09T15:28:18.391Z,10.37
2023-10-09T15:31:12.353Z,10.37
2023-10-09T15:34:09.573Z,10.43
2023-10-09T15:37:04.985Z,11.30
2023-10-09T15:39:58.295Z,12.30
2023-10-09T15:42:57.766Z,10.50
2023-10-09T15:45:51.090Z,11.67
2023-10-09T15:48:45.934Z,9.87
2023-10-09T15:51:39.065Z,10.20
2023-10-09T15:54:32.068Z,10.83
2023-10-09T15:57:25.104Z,17.10
2023-10-09T16:00:19.747Z,10.93
2023-10-09T16:03:15.226Z,11.23
2023-10-09T16:06:10.475Z,10.37
2023-10-09T16:09:05.795Z,11.43
2023-10-09T16:11:59.368Z,10.43
2023-10-09T16:14:55.017Z,12.10
2023-10-09T16:17:50.643Z,11.10
2023-10-09T16:20:44.458Z,10.97
2023-10-09T16:23:38.745Z,11.93
2023-10-09T16:26:39.251Z,11.67
2023-10-09T16:29:33.661Z,11.07
2023-10-09T16:32:26.875Z,12.37
2023-10-09T16:35:25.465Z,18.07
2023-10-09T16:38:18.527Z,15.60
2023-10-09T16:41:15.156Z,16.90
2023-10-09T16:44:11.352Z,23.40
2023-10-09T16:47:06.235Z,13.50
2023-10-09T16:50:00.838Z,12.77
2023-10-09T16:52:55.297Z,12.40
2023-10-09T16:55:49.817Z,12.07
2023-10-09T16:58:43.346Z,12.23
2023-10-09T17:01:37.367Z,11.87
2023-10-09T17:04:31.004Z,12.23
2023-10-09T17:07:32.049Z,11.73
2023-10-09T17:10:28.947Z,12.00
2023-10-09T17:13:25.306Z,12.00
2023-10-09T17:16:20.828Z,12.23
2023-10-09T17:19:15.327Z,12.17
2023-10-09T17:22:12.261Z,12.10
2023-10-09T17:25:06.756Z,11.80
2023-10-09T17:28:01.797Z,11.87
2023-10-09T17:31:02.251Z,11.37
2023-10-09T17:33:57.421Z,11.43
2023-10-09T17:36:50.592Z,11.90
2023-10-09T17:39:43.896Z,12.30
2023-10-09T17:42:39.798Z,12.53
2023-10-09T17:45:42.360Z,11.90
2023-10-09T17:48:35.574Z,11.77
2023-10-09T17:51:29.253Z,11.33
2023-10-09T17:54:27.385Z,11.43
2023-10-09T17:57:20.575Z,11.53
2023-10-09T18:00:23.152Z,11.73
2023-10-09T18:03:18.202Z,10.87
2023-10-09T18:06:13.967Z,10.07
2023-10-09T18:09:17.362Z,12.00
2023-10-09T18:12:14.632Z,12.37
2023-10-09T18:15:08.267Z,36.73
2023-10-09T18:18:01.512Z,16.70
2023-10-09T18:20:58.282Z,13.80
2023-10-09T18:23:53.020Z,12.53
2023-10-09T18:26:46.189Z,11.47
2023-10-09T18:29:39.286Z,12.43
2023-10-09T18:32:32.382Z,11.73
2023-10-09T18:35:31.409Z,13.40
2023-10-09T18:38:26.731Z,13.57
2023-10-09T18:41:19.966Z,11.90
2023-10-09T18:44:14.102Z,12.77
2023-10-09T18:47:07.310Z,12.60
2023-10-09T18:50:00.568Z,11.80
2023-10-09T18:52:53.896Z,12.47
2023-10-09T18:55:49.667Z,11.43
2023-10-09T18:58:42.740Z,13.47
2023-10-09T19:01:36.255Z,12.03
2023-10-09T19:04:29.361Z,11.67
2023-10-09T19:07:22.485Z,12.07
2023-10-09T19:10:19.161Z,11.50
2023-10-09T19:13:15.055Z,11.60
2023-10-09T19:16:08.316Z,12.03
2023-10-09T19:19:08.533Z,12.20
2023-10-09T19:22:03.076Z,12.23
2023-10-09T19:24:57.408Z,10.73
2023-10-09T19:27:58.107Z,11.63
2023-10-09T19:30:53.123Z,10.93
2023-10-09T19:33:46.348Z,11.37
2023-10-09T19:36:42.117Z,11.30
2023-10-09T19:39:35.187Z,11.00
2023-10-09T19:42:30.458Z,10.87
2023-10-09T19:45:23.349Z,10.30
2023-10-09T19:48:17.880Z,10.40
2023-10-09T19:51:13.573Z,12.37
2023-10-09T19:54:06.741Z,11.83
2023-10-09T19:57:00.026Z,11.60
2023-10-09T19:59:56.004Z,11.67
2023-10-09T20:02:49.383Z,11.37
2023-10-09T20:05:43.831Z,11.47
2023-10-09T20:08:39.621Z,12.57
2023-10-09T20:11:32.505Z,11.93
2023-10-09T20:14:25.463Z,11.63
2023-10-09T20:17:18.665Z,11.23
2023-10-09T20:20:14.628Z,11.93
2023-10-09T20:23:09.116Z,11.47
2023-10-09T20:26:02.739Z,11.47
2023-10-09T20:28:55.999Z,12.23
2023-10-09T20:31:50.868Z,12.53
2023-10-09T20:34:44.941Z,12.33
2023-10-09T20:37:38.015Z,12.80
2023-10-09T20:40:32.747Z,13.13
2023-10-09T20:43:28.691Z,12.67
2023-10-09T20:46:25.347Z,14.67
2023-10-09T20:49:19.451Z,13.23
2023-10-09T20:52:12.758Z,13.63
2023-10-09T20:55:06.701Z,12.77
2023-10-09T20:58:02.935Z,12.87
2023-10-09T21:00:59.189Z,12.63
2023-10-09T21:03:52.905Z,12.63
2023-10-09T21:06:50.937Z,13.63
2023-10-09T21:09:44.433Z,13.40
2023-10-09T21:12:38.065Z,13.33
2023-10-09T21:15:36.028Z,13.60
2023-10-09T21:18:29.579Z,13.23
2023-10-09T21:21:23.503Z,14.13
2023-10-09T21:24:16.628Z,13.80
2023-10-09T21:27:10.144Z,14.03
2023-10-09T21:30:07.413Z,14.97
2023-10-09T21:33:02.073Z,13.57
2023-10-09T21:35:56.872Z,13.90
2023-10-09T21:38:49.994Z,13.67
2023-10-09T21:41:43.095Z,13.33
2023-10-09T21:44:36.127Z,14.23
2023-10-09T21:47:31.208Z,13.97
2023-10-09T21:50:26.844Z,14.23
2023-10-09T21:53:19.949Z,14.50
2023-10-09T21:56:15.586Z,15.57
2023-10-09T21:59:13.284Z,15.13
2023-10-09T22:02:07.821Z,15.27
2023-10-09T22:05:10.305Z,14.20
2023-10-09T22:08:07.047Z,15.23
2023-10-09T22:11:00.167Z,15.13
2023-10-09T22:13:53.297Z,15.03
2023-10-09T22:16:46.395Z,15.13
2023-10-09T22:19:39.371Z,14.67
2023-10-09T22:22:34.561Z,14.90
2023-10-09T22:25:31.130Z,15.47
2023-10-09T22:28:24.924Z,14.40
2023-10-09T22:31:18.048Z,14.33
2023-10-09T22:34:12.813Z,15.27
2023-10-09T22:37:14.115Z,16.93
2023-10-09T22:40:21.932Z,14.63
2023-10-09T22:43:18.113Z,14.50
2023-10-09T22:46:16.773Z,14.07
2023-10-09T22:49:15.533Z,13.90
2023-10-09T22:52:14.598Z,13.50
2023-10-09T22:55:08.218Z,15.27
2023-10-09T22:58:11.009Z,14.63
2023-10-09T23:01:13.553Z,13.83
2023-10-09T23:04:17.556Z,13.70
2023-10-09T23:07:16.443Z,13.47
2023-10-09T23:10:17.005Z,14.07
2023-10-09T23:13:16.499Z,13.77
2023-10-09T23:16:15.536Z,13.33
2023-10-09T23:19:32.240Z,14.60
2023-10-09T23:22:39.061Z,13.80
2023-10-09T23:25:35.044Z,14.40
2023-10-09T23:28:39.043Z,14.37
2023-10-09T23:31:47.851Z,13.20
2023-10-09T23:34:53.636Z,13.80
2023-10-09T23:38:07.690Z,13.97
2023-10-09T23:41:01.285Z,14.80
2023-10-09T23:43:56.626Z,14.07
2023-10-09T23:46:51.763Z,14.07
2023-10-09T23:49:47.069Z,13.70
2023-10-09T23:52:45.563Z,12.80
2023-10-09T23:55:43.261Z,13.20
2023-10-09T23:58:36.420Z,13.43
